Time;durP1;ratioP1;P1;durP2;ratioP2;P2;SDS_P1;SDS_P2;PMS_P1;PMS_P2;Temp;Humidity;BMP_temperature;BMP_pressure;BME280_temperature;BME280_humidity;BME280_pressure;Samples;Min_cycle;Max_cycle;Signal;HPM_P1;HPM_P2
2023/04/21 00:01:11;;;;;;;25.00;15.40;;;10.40;81.10;;;;;;5075168;28;20029;-79
2023/04/21 00:03:37;;;;;;;22.47;14.33;;;10.40;81.70;;;;;;5075199;28;20028;-79
2023/04/21 00:06:05;;;;;;;26.73;16.17;;;10.40;81.60;;;;;;5073924;28;20033;-79
2023/04/21 00:08:31;;;;;;;24.17;14.57;;;10.40;82.50;;;;;;5074664;28;20033;-79
2023/04/21 00:10:57;;;;;;;27.43;16.43;;;10.30;82.40;;;;;;5057104;28;20055;-79
2023/04/21 00:13:23;;;;;;;25.97;16.03;;;10.30;82.90;;;;;;5056873;28;20121;-79
2023/04/21 00:15:49;;;;;;;24.43;16.87;;;10.30;83.10;;;;;;5074917;28;20162;-79
2023/04/21 00:18:15;;;;;;;25.70;16.70;;;10.30;83.20;;;;;;5057026;28;20044;-80
2023/04/21 00:20:42;;;;;;;27.87;17.03;;;10.20;83.40;;;;;;5057018;28;20430;-79
2023/04/21 00:23:09;;;;;;;26.07;16.17;;;10.20;83.70;;;;;;5074792;28;20024;-79
2023/04/21 00:25:35;;;;;;;26.30;16.80;;;10.20;83.60;;;;;;5073695;28;20028;-79
2023/04/21 00:28:01;;;;;;;25.20;15.83;;;10.20;83.70;;;;;;5073433;28;20396;-79
2023/04/21 00:30:27;;;;;;;30.30;17.03;;;10.10;83.70;;;;;;5073341;28;20039;-79
2023/04/21 00:32:52;;;;;;;29.53;17.40;;;10.20;84.10;;;;;;5073333;28;20063;-79
2023/04/21 00:35:18;;;;;;;27.93;17.87;;;10.10;84.40;;;;;;5070578;28;20063;-79
2023/04/21 00:37:43;;;;;;;25.47;17.20;;;10.10;84.90;;;;;;5062110;28;20125;-79
2023/04/21 00:40:10;;;;;;;27.70;18.13;;;10.20;85.10;;;;;;5053077;28;20120;-79
2023/04/21 00:42:35;;;;;;;23.97;16.60;;;10.10;84.80;;;;;;5053238;28;20434;-78
2023/04/21 00:45:02;;;;;;;27.07;17.20;;;10.10;84.70;;;;;;5053208;28;20117;-79
2023/04/21 00:47:28;;;;;;;28.13;17.80;;;10.10;85.00;;;;;;5053103;28;20469;-79
2023/04/21 00:49:54;;;;;;;29.13;18.23;;;10.10;85.30;;;;;;5054530;28;20059;-79
2023/04/21 00:52:20;;;;;;;30.73;19.77;;;10.00;85.50;;;;;;5053203;28;20516;-78
2023/04/21 00:54:46;;;;;;;30.20;18.70;;;10.10;86.10;;;;;;5054528;28;20044;-78
2023/04/21 00:57:12;;;;;;;30.00;18.63;;;10.10;85.80;;;;;;5054148;28;20033;-79
2023/04/21 00:59:37;;;;;;;28.17;18.33;;;10.10;86.10;;;;;;5054291;28;20477;-78
2023/04/21 01:02:03;;;;;;;29.40;18.20;;;10.10;86.40;;;;;;5053909;28;20036;-78
2023/04/21 01:04:35;;;;;;;29.27;18.43;;;10.10;86.50;;;;;;5054203;28;20037;-78
2023/04/21 01:07:02;;;;;;;25.73;17.00;;;10.10;86.90;;;;;;5052988;28;20029;-78
2023/04/21 01:09:28;;;;;;;28.23;18.27;;;10.10;87.10;;;;;;5054949;28;20114;-77
2023/04/21 01:12:10;;;;;;;30.73;19.30;;;10.10;87.20;;;;;;5072281;28;20036;-78
2023/04/21 01:14:38;;;;;;;31.33;19.37;;;10.00;87.40;;;;;;5073593;28;20036;-77
2023/04/21 01:17:04;;;;;;;29.50;17.67;;;10.10;88.00;;;;;;5073533;28;20428;-77
2023/04/21 01:19:38;;;;;;;32.77;18.67;;;10.00;88.20;;;;;;5072297;28;20388;-78
2023/04/21 01:22:05;;;;;;;26.83;17.75;;;10.10;88.10;;;;;;5058753;28;20039;-78
2023/04/21 01:24:47;;;;;;;28.63;19.07;;;10.10;88.10;;;;;;5052061;28;20025;-78
2023/04/21 01:27:19;;;;;;;31.53;19.10;;;10.00;88.20;;;;;;5051708;28;20021;-77
2023/04/21 01:29:47;;;;;;;27.57;18.43;;;10.00;88.30;;;;;;5053029;28;20029;-78
2023/04/21 01:32:17;;;;;;;28.27;18.03;;;10.00;88.40;;;;;;5053488;28;20381;-78
2023/04/21 01:34:44;;;;;;;32.00;20.10;;;10.00;88.70;;;;;;5052696;28;20507;-78
2023/04/21 01:37:15;;;;;;;28.60;19.30;;;10.00;88.70;;;;;;5068706;28;20035;-77
2023/04/21 01:39:43;;;;;;;30.43;19.43;;;10.00;89.00;;;;;;5055274;28;20116;-77
2023/04/21 01:42:09;;;;;;;27.90;18.47;;;10.00;89.30;;;;;;5068807;28;20028;-78
2023/04/21 01:44:36;;;;;;;28.67;18.83;;;10.00;89.50;;;;;;5072127;28;20020;-77
2023/04/21 01:47:02;;;;;;;32.23;18.80;;;10.00;89.90;;;;;;5073123;28;20103;-77
2023/04/21 01:49:28;;;;;;;28.30;18.90;;;10.00;90.00;;;;;;5073172;28;20064;-78
2023/04/21 01:51:53;;;;;;;31.67;19.83;;;10.10;90.10;;;;;;5073259;28;20040;-77
2023/04/21 01:54:19;;;;;;;31.37;19.30;;;10.10;90.10;;;;;;5072058;28;20039;-77
2023/04/21 01:56:44;;;;;;;28.87;18.27;;;10.10;90.20;;;;;;5073227;28;20523;-77
2023/04/21 01:59:10;;;;;;;29.90;19.20;;;10.10;90.30;;;;;;5069696;28;20389;-77
2023/04/21 02:01:36;;;;;;;30.37;18.67;;;10.10;90.40;;;;;;5051736;28;20481;-77
2023/04/21 02:04:03;;;;;;;30.90;20.47;;;10.10;90.50;;;;;;5051494;28;20037;-78
2023/04/21 02:06:30;;;;;;;31.23;20.20;;;10.10;90.70;;;;;;5053213;28;20029;-79
2023/04/21 02:08:56;;;;;;;31.47;19.87;;;10.10;90.70;;;;;;5053051;28;20112;-79
2023/04/21 02:11:24;;;;;;;32.70;19.67;;;10.10;90.90;;;;;;5053106;28;20032;-79
2023/04/21 02:13:51;;;;;;;31.50;21.00;;;10.10;90.90;;;;;;5051709;28;20132;-78
2023/04/21 02:16:17;;;;;;;31.83;20.73;;;10.10;91.00;;;;;;5051851;28;20025;-79
2023/04/21 02:18:43;;;;;;;31.73;21.17;;;10.10;91.20;;;;;;5051827;28;20039;-79
2023/04/21 02:21:09;;;;;;;31.90;20.23;;;10.10;91.30;;;;;;5051765;28;20457;-78
2023/04/21 02:23:34;;;;;;;29.27;19.50;;;10.10;91.50;;;;;;5035064;28;20035;-79
2023/04/21 02:26:00;;;;;;;29.40;20.63;;;10.00;91.60;;;;;;5051694;28;20385;-79
2023/04/21 02:28:25;;;;;;;26.00;18.17;;;10.10;91.80;;;;;;5052799;28;20068;-79
2023/04/21 02:30:51;;;;;;;28.73;18.67;;;10.00;91.90;;;;;;5053880;28;20049;-79
2023/04/21 02:33:17;;;;;;;27.97;18.23;;;10.00;92.00;;;;;;5055740;28;20029;-79
2023/04/21 02:35:42;;;;;;;26.97;18.67;;;10.00;92.10;;;;;;5057039;28;20162;-79
2023/04/21 02:38:09;;;;;;;27.13;18.10;;;10.00;92.50;;;;;;5061193;28;20040;-79
2023/04/21 02:40:35;;;;;;;25.63;17.90;;;10.10;92.40;;;;;;5076871;28;20024;-79
2023/04/21 02:43:01;;;;;;;26.13;18.50;;;10.00;92.40;;;;;;5076663;28;20032;-79
2023/04/21 02:45:27;;;;;;;30.60;19.50;;;10.00;92.50;;;;;;5075519;28;20028;-77
2023/04/21 02:47:52;;;;;;;28.03;18.63;;;10.00;92.70;;;;;;5076586;28;20111;-77
2023/04/21 02:50:18;;;;;;;27.13;18.83;;;10.00;92.70;;;;;;5075439;28;20048;-76
2023/04/21 02:52:44;;;;;;;28.17;18.87;;;10.00;92.70;;;;;;5076788;28;20029;-78
2023/04/21 02:55:09;;;;;;;28.40;18.83;;;9.90;92.90;;;;;;5076585;28;20392;-77
2023/04/21 02:57:35;;;;;;;28.00;18.27;;;10.00;93.10;;;;;;5075219;28;20403;-79
2023/04/21 03:00:01;;;;;;;26.83;18.93;;;10.00;93.10;;;;;;5070449;28;20051;-79
2023/04/21 03:02:26;;;;;;;26.03;18.07;;;10.00;93.20;;;;;;5056263;28;20033;-79
2023/04/21 03:04:52;;;;;;;26.40;18.00;;;10.00;93.30;;;;;;5055985;28;20024;-79
2023/04/21 03:07:18;;;;;;;27.87;18.90;;;10.10;93.40;;;;;;5056371;28;20025;-79
2023/04/21 03:09:44;;;;;;;27.23;18.63;;;10.10;93.60;;;;;;5056162;28;20106;-79
2023/04/21 03:12:09;;;;;;;29.17;20.87;;;10.10;93.60;;;;;;5055040;28;20040;-79
2023/04/21 03:14:35;;;;;;;26.07;18.83;;;10.00;93.70;;;;;;5055948;28;20562;-79
2023/04/21 03:17:01;;;;;;;29.47;20.53;;;10.00;93.80;;;;;;5056069;28;20108;-79
2023/04/21 03:19:26;;;;;;;28.97;19.67;;;10.00;93.90;;;;;;5056044;28;20037;-79
2023/04/21 03:21:52;;;;;;;30.73;21.27;;;10.00;94.10;;;;;;5054894;28;20033;-79
2023/04/21 03:24:18;;;;;;;30.13;21.97;;;10.00;94.40;;;;;;5056043;28;20033;-80
2023/04/21 03:26:44;;;;;;;29.73;20.93;;;10.00;94.50;;;;;;5054636;28;20033;-80
2023/04/21 03:29:09;;;;;;;29.90;19.90;;;10.00;94.50;;;;;;5038783;28;20029;-80
2023/04/21 03:31:35;;;;;;;31.77;21.47;;;10.00;94.60;;;;;;5064718;28;20047;-80
2023/04/21 03:34:00;;;;;;;29.40;20.53;;;10.00;95.00;;;;;;5054416;28;20032;-80
2023/04/21 03:36:26;;;;;;;29.40;21.27;;;10.00;95.00;;;;;;5054628;28;20028;-80
2023/04/21 03:38:52;;;;;;;30.77;22.23;;;10.00;95.00;;;;;;5055868;28;20044;-80
2023/04/21 03:41:18;;;;;;;30.03;20.90;;;10.00;95.10;;;;;;5054595;28;20036;-80
2023/04/21 03:43:43;;;;;;;29.50;20.97;;;10.00;95.40;;;;;;5055184;28;20029;-80
2023/04/21 03:46:17;;;;;;;29.20;21.00;;;10.10;95.30;;;;;;5054593;28;20482;-80
2023/04/21 03:48:43;;;;;;;30.92;21.13;;;10.00;95.40;;;;;;5054455;28;20021;-80
2023/04/21 03:51:08;;;;;;;31.23;21.23;;;10.00;95.40;;;;;;5037900;28;20035;-80
2023/04/21 03:53:34;;;;;;;33.00;21.23;;;10.00;95.60;;;;;;5054709;28;20385;-80
2023/04/21 03:55:59;;;;;;;29.63;20.73;;;10.00;95.70;;;;;;5055530;28;20135;-80
2023/04/21 03:58:25;;;;;;;30.03;20.80;;;10.00;95.80;;;;;;5054124;28;20481;-80
2023/04/21 04:00:51;;;;;;;31.43;21.87;;;10.00;95.90;;;;;;5055431;28;20044;-80
2023/04/21 04:03:16;;;;;;;32.50;22.03;;;10.00;96.00;;;;;;5055402;28;20044;-80
2023/04/21 04:05:42;;;;;;;30.77;22.50;;;10.00;96.10;;;;;;5055365;28;20036;-80
2023/04/21 04:08:07;;;;;;;35.03;22.77;;;10.00;96.30;;;;;;5054077;28;20033;-80
2023/04/21 04:10:33;;;;;;;33.67;23.07;;;10.00;96.30;;;;;;5054100;28;20083;-80
2023/04/21 04:12:58;;;;;;;33.80;24.47;;;10.00;96.40;;;;;;5053834;28;20033;-79
2023/04/21 04:15:24;;;;;;;34.30;24.83;;;10.00;96.50;;;;;;5053897;28;20120;-80
2023/04/21 04:17:50;;;;;;;33.47;23.30;;;10.00;96.70;;;;;;5053845;28;20033;-80
2023/04/21 04:20:15;;;;;;;35.93;24.90;;;10.00;96.70;;;;;;5055321;28;20112;-79
2023/04/21 04:22:41;;;;;;;36.27;26.47;;;10.00;97.30;;;;;;5053758;28;20040;-80
2023/04/21 04:25:07;;;;;;;36.40;24.40;;;10.00;97.10;;;;;;5054936;28;20056;-80
2023/04/21 04:27:33;;;;;;;35.80;25.13;;;10.00;97.10;;;;;;5053796;28;20037;-80
2023/04/21 04:29:58;;;;;;;37.67;25.50;;;10.00;97.30;;;;;;5053720;28;20450;-79
2023/04/21 04:32:27;;;;;;;35.77;25.13;;;10.00;97.30;;;;;;5054777;28;20040;-79
2023/04/21 04:34:54;;;;;;;34.27;24.13;;;10.10;97.30;;;;;;5054741;28;20025;-79
2023/04/21 04:37:20;;;;;;;33.40;23.67;;;10.00;97.30;;;;;;5054737;28;20037;-80
2023/04/21 04:39:46;;;;;;;35.60;25.63;;;10.00;97.30;;;;;;5054047;28;20036;-80
2023/04/21 04:42:13;;;;;;;36.27;24.80;;;10.00;97.70;;;;;;5054920;28;20025;-79
2023/04/21 04:44:40;;;;;;;34.70;23.73;;;10.00;97.40;;;;;;5063893;28;20029;-79
2023/04/21 04:47:06;;;;;;;37.03;25.57;;;10.10;97.50;;;;;;5068603;28;20127;-80
2023/04/21 04:49:32;;;;;;;34.43;24.00;;;10.00;97.60;;;;;;5071772;28;20064;-80
2023/04/21 04:51:58;;;;;;;37.40;25.53;;;10.10;97.60;;;;;;5064979;28;20380;-80
2023/04/21 04:54:24;;;;;;;35.93;25.97;;;10.00;97.70;;;;;;5069943;28;20036;-79
2023/04/21 04:56:49;;;;;;;35.13;24.93;;;10.00;97.80;;;;;;5068418;28;20556;-80
2023/04/21 04:59:15;;;;;;;38.33;25.97;;;10.00;97.80;;;;;;5052052;28;20029;-80
2023/04/21 05:01:41;;;;;;;38.93;26.97;;;10.00;97.90;;;;;;5053724;28;20068;-79
2023/04/21 05:04:06;;;;;;;41.10;27.00;;;10.10;98.10;;;;;;5052750;28;20156;-79
2023/04/21 05:06:32;;;;;;;38.40;27.30;;;10.10;98.30;;;;;;5052603;28;20048;-79
2023/04/21 05:08:58;;;;;;;38.80;26.87;;;10.10;98.30;;;;;;5053721;28;20069;-79
2023/04/21 05:11:23;;;;;;;39.50;27.37;;;10.10;98.20;;;;;;5069118;28;20029;-79
2023/04/21 05:13:49;;;;;;;38.27;26.87;;;10.10;98.30;;;;;;5055956;28;20048;-80
2023/04/21 05:16:14;;;;;;;39.73;28.43;;;10.10;98.60;;;;;;5052523;28;20025;-80
2023/04/21 05:18:40;;;;;;;39.60;27.03;;;10.10;98.50;;;;;;5053896;28;20029;-80
2023/04/21 05:21:06;;;;;;;38.43;26.20;;;10.10;98.60;;;;;;5052549;28;20120;-80
2023/04/21 05:23:31;;;;;;;37.23;26.90;;;10.10;98.60;;;;;;5055356;28;20044;-81
2023/04/21 05:25:57;;;;;;;39.33;27.03;;;10.10;98.60;;;;;;5068281;28;20312;-80
2023/04/21 05:28:23;;;;;;;37.60;25.63;;;10.10;98.80;;;;;;5071134;28;20036;-80
2023/04/21 05:30:48;;;;;;;37.17;26.80;;;10.10;98.90;;;;;;5073519;28;20039;-80
2023/04/21 05:33:18;;;;;;;37.43;25.27;;;10.20;98.90;;;;;;5075159;28;20044;-81
2023/04/21 05:35:43;;;;;;;36.60;26.30;;;10.20;99.00;;;;;;5066717;28;20043;-81
2023/04/21 05:38:09;;;;;;;36.47;26.50;;;10.20;99.10;;;;;;5056435;28;20455;-81
2023/04/21 05:40:35;;;;;;;38.70;25.47;;;10.20;99.20;;;;;;5052087;28;20116;-80
2023/04/21 05:43:01;;;;;;;38.43;26.27;;;10.20;99.20;;;;;;5065701;28;20056;-80
2023/04/21 05:45:26;;;;;;;38.53;26.13;;;10.20;99.30;;;;;;5047624;28;20128;-80
2023/04/21 05:47:52;;;;;;;38.03;26.30;;;10.20;99.50;;;;;;5067927;28;20028;-79
2023/04/21 05:50:17;;;;;;;35.90;25.77;;;10.30;99.50;;;;;;5046072;28;20431;-80
2023/04/21 05:52:43;;;;;;;34.13;24.30;;;10.30;99.50;;;;;;5054512;28;20100;-80
2023/04/21 05:55:09;;;;;;;35.33;25.87;;;10.30;99.60;;;;;;5072906;28;20024;-80
2023/04/21 05:57:34;;;;;;;36.13;25.40;;;10.30;99.70;;;;;;5071425;28;20029;-80
2023/04/21 06:00:00;;;;;;;37.00;26.20;;;10.40;99.80;;;;;;5072486;28;20040;-80
2023/04/21 06:02:26;;;;;;;37.90;27.23;;;10.40;99.90;;;;;;5071479;28;20039;-80
2023/04/21 06:04:52;;;;;;;40.17;27.57;;;10.40;99.90;;;;;;5072754;28;20028;-80
2023/04/21 06:07:18;;;;;;;40.27;28.63;;;10.50;99.90;;;;;;5071466;28;20108;-80
2023/04/21 06:09:48;;;;;;;34.87;24.90;;;10.50;99.90;;;;;;5071137;28;20090;-80
2023/04/21 06:12:13;;;;;;;37.17;25.90;;;10.50;99.90;;;;;;5073000;28;20025;-82
2023/04/21 06:14:39;;;;;;;34.33;24.87;;;10.60;99.90;;;;;;5054532;28;20106;-81
2023/04/21 06:17:05;;;;;;;33.70;24.83;;;10.60;99.90;;;;;;5054975;28;20107;-81
2023/04/21 06:19:36;;;;;;;33.33;23.20;;;10.70;99.90;;;;;;5069934;28;20024;-81
2023/04/21 06:22:01;;;;;;;35.27;23.27;;;10.70;99.90;;;;;;5071412;28;20029;-80
2023/04/21 06:24:31;;;;;;;35.77;24.17;;;10.80;99.90;;;;;;5054041;28;20178;-79
2023/04/21 06:26:57;;;;;;;30.67;22.70;;;11.00;99.90;;;;;;5071990;28;20036;-80
2023/04/21 06:29:22;;;;;;;33.40;23.83;;;10.90;99.90;;;;;;5071311;28;20123;-80
2023/04/21 06:31:48;;;;;;;34.13;24.53;;;10.90;99.90;;;;;;5072520;28;20481;-80
2023/04/21 06:34:14;;;;;;;32.73;23.23;;;10.90;99.90;;;;;;5071362;28;20029;-80
2023/04/21 06:36:40;;;;;;;32.90;22.53;;;10.90;99.90;;;;;;5071394;28;20412;-80
2023/04/21 06:39:05;;;;;;;31.23;22.53;;;11.00;99.90;;;;;;5069395;28;20028;-80
2023/04/21 06:41:31;;;;;;;29.67;21.87;;;11.00;99.90;;;;;;5070094;28;20105;-80
2023/04/21 06:43:57;;;;;;;31.23;22.83;;;11.00;99.90;;;;;;5071511;28;20107;-82
2023/04/21 06:46:22;;;;;;;32.03;23.30;;;11.00;99.90;;;;;;5070081;28;20036;-82
2023/04/21 06:48:48;;;;;;;30.20;21.67;;;11.10;99.90;;;;;;5070643;28;20024;-81
2023/04/21 06:51:13;;;;;;;36.00;24.30;;;11.10;99.90;;;;;;5054382;28;20545;-82
2023/04/21 06:53:39;;;;;;;31.13;21.60;;;11.20;99.90;;;;;;5072430;28;20049;-81
2023/04/21 06:56:05;;;;;;;31.93;23.33;;;11.20;99.90;;;;;;5071892;28;20138;-81
2023/04/21 06:58:30;;;;;;;34.88;23.40;;;11.20;99.90;;;;;;5070876;28;20464;-81
2023/04/21 07:00:56;;;;;;;32.90;24.57;;;11.30;99.90;;;;;;5054696;28;20453;-81
2023/04/21 07:03:22;;;;;;;30.50;22.47;;;11.30;99.90;;;;;;5071597;28;20029;-81
2023/04/21 07:05:47;;;;;;;32.47;23.00;;;11.30;99.90;;;;;;5072491;28;20438;-81
2023/04/21 07:08:13;;;;;;;32.30;23.37;;;11.40;99.90;;;;;;5070270;28;20024;-82
2023/04/21 07:10:39;;;;;;;32.27;23.10;;;11.30;99.90;;;;;;5069739;28;20021;-81
2023/04/21 07:13:05;;;;;;;34.47;23.20;;;11.40;99.90;;;;;;5067921;28;20036;-81
2023/04/21 07:15:31;;;;;;;37.03;25.00;;;11.40;99.90;;;;;;5071319;28;20025;-82
2023/04/21 07:17:57;;;;;;;33.60;25.37;;;11.40;99.90;;;;;;5054323;28;20443;-79
2023/04/21 07:20:23;;;;;;;36.70;25.93;;;11.40;99.90;;;;;;5075843;28;20047;-81
2023/04/21 07:22:49;;;;;;;33.30;24.25;;;11.50;99.90;;;;;;5057999;28;20025;-82
2023/04/21 07:25:14;;;;;;;35.50;24.87;;;11.50;99.90;;;;;;5067611;28;20029;-82
2023/04/21 07:27:40;;;;;;;32.10;23.85;;;11.60;99.90;;;;;;5073396;28;20064;-82
2023/04/21 07:30:06;;;;;;;30.85;23.48;;;11.60;99.90;;;;;;5056815;28;20024;-82
2023/04/21 07:32:33;;;;;;;32.28;22.77;;;11.60;99.90;;;;;;5073392;28;20023;-83
2023/04/21 07:35:00;;;;;;;36.72;24.00;;;11.60;99.80;;;;;;5056451;28;20048;-83
2023/04/21 07:37:26;;;;;;;33.33;24.50;;;11.60;99.70;;;;;;5075829;28;20027;-82
2023/04/21 07:39:52;;;;;;;34.53;24.25;;;11.70;99.80;;;;;;5074349;28;20028;-82
2023/04/21 07:42:17;;;;;;;34.17;24.73;;;11.70;99.70;;;;;;5072452;28;20044;-82
2023/04/21 07:44:43;;;;;;;31.73;23.58;;;11.70;99.80;;;;;;5069816;28;20492;-82
2023/04/21 07:47:09;;;;;;;34.40;24.27;;;11.70;99.80;;;;;;5071942;28;20027;-81
2023/04/21 07:49:34;;;;;;;31.00;22.90;;;11.80;99.90;;;;;;5073748;28;20032;-82
2023/04/21 07:52:00;;;;;;;37.33;24.63;;;11.80;99.90;;;;;;5072774;28;20442;-83
2023/04/21 07:54:25;;;;;;;29.98;23.13;;;11.90;99.90;;;;;;5072604;28;20499;-82
2023/04/21 07:56:51;;;;;;;31.02;23.08;;;12.00;99.90;;;;;;5072258;28;20023;-83
2023/04/21 07:59:17;;;;;;;35.20;24.27;;;12.00;99.90;;;;;;5072410;28;20415;-82
2023/04/21 08:01:42;;;;;;;33.08;24.13;;;12.10;99.90;;;;;;5073657;28;20090;-83
2023/04/21 08:04:08;;;;;;;28.80;21.88;;;12.20;99.90;;;;;;5070093;28;20033;-83
2023/04/21 08:06:34;;;;;;;33.78;23.58;;;12.30;99.90;;;;;;5072266;28;20033;-82
2023/04/21 08:08:59;;;;;;;31.08;22.52;;;12.40;99.90;;;;;;5055337;28;20028;-82
2023/04/21 08:11:27;;;;;;;29.55;22.30;;;12.50;99.90;;;;;;5072342;28;20095;-82
2023/04/21 08:13:53;;;;;;;29.77;22.23;;;12.70;99.90;;;;;;5073198;28;20040;-83
2023/04/21 08:16:19;;;;;;;34.97;23.35;;;12.90;99.90;;;;;;5056918;28;20082;-83
2023/04/21 08:18:44;;;;;;;28.60;21.63;;;13.00;99.90;;;;;;5073603;28;20392;-83
2023/04/21 08:21:10;;;;;;;30.27;22.38;;;13.20;99.90;;;;;;5075201;28;20032;-81
2023/04/21 08:23:36;;;;;;;28.35;21.55;;;13.30;99.90;;;;;;5073323;28;20496;-83
2023/04/21 08:26:02;;;;;;;29.17;22.10;;;13.40;99.70;;;;;;5056694;28;20020;-83
2023/04/21 08:28:27;;;;;;;28.30;21.17;;;13.60;99.40;;;;;;5073342;28;20060;-82
2023/04/21 08:30:53;;;;;;;27.60;21.27;;;13.70;99.10;;;;;;5073134;28;20048;-83
2023/04/21 08:33:19;;;;;;;24.73;19.42;;;13.80;98.90;;;;;;5053299;28;20086;-84
2023/04/21 08:35:44;;;;;;;29.45;20.70;;;13.90;98.50;;;;;;5053618;28;20029;-81
2023/04/21 08:38:10;;;;;;;27.02;20.45;;;14.00;98.20;;;;;;5053230;28;20037;-83
2023/04/21 08:40:37;;;;;;;26.58;20.52;;;14.00;97.90;;;;;;5053223;28;20024;-83
2023/04/21 08:43:05;;;;;;;27.50;20.42;;;14.10;97.60;;;;;;5051533;28;20025;-84
2023/04/21 08:45:32;;;;;;;26.98;20.80;;;14.20;97.30;;;;;;5073039;28;20016;-84
2023/04/21 08:47:59;;;;;;;26.23;19.88;;;14.20;97.00;;;;;;5072120;28;20020;-86
2023/04/21 08:50:30;;;;;;;25.25;19.42;;;14.30;96.60;;;;;;5084622;28;20043;-84
2023/04/21 08:52:56;;;;;;;28.20;19.80;;;14.30;96.40;;;;;;5073225;28;20027;-84
2023/04/21 08:55:29;;;;;;;25.88;19.88;;;14.40;96.20;;;;;;5072062;28;20028;-85
2023/04/21 08:57:55;;;;;;;27.40;20.43;;;14.40;95.80;;;;;;5069679;28;20028;-84
2023/04/21 09:00:21;;;;;;;25.95;19.55;;;14.50;95.50;;;;;;5063518;28;20021;-84
2023/04/21 09:02:58;;;;;;;28.10;21.02;;;14.50;95.30;;;;;;5067997;28;20052;-84
2023/04/21 09:05:26;;;;;;;29.23;19.90;;;14.60;95.10;;;;;;5073619;28;20020;-86
2023/04/21 09:08:07;;;;;;;25.67;19.20;;;14.70;95.00;;;;;;5073449;28;20078;-85
2023/04/21 09:10:33;;;;;;;24.95;19.23;;;14.70;94.90;;;;;;5067014;28;20012;-85
2023/04/21 09:13:05;;;;;;;24.58;20.02;;;14.80;94.70;;;;;;5072297;28;20051;-84
2023/04/21 09:15:41;;;;;;;22.60;17.88;;;14.90;94.40;;;;;;5071869;28;20028;-84
2023/04/21 09:18:21;;;;;;;26.52;19.67;;;14.90;94.10;;;;;;5055664;28;20120;-85
2023/04/21 09:20:50;;;;;;;23.05;17.48;;;15.00;93.90;;;;;;5084405;28;20020;-84
2023/04/21 09:23:16;;;;;;;24.63;19.05;;;15.10;93.80;;;;;;5068577;28;20542;-85
2023/04/21 09:25:44;;;;;;;25.88;20.63;;;15.20;93.70;;;;;;5071494;28;20033;-85
2023/04/21 09:28:11;;;;;;;22.60;17.83;;;15.30;93.40;;;;;;5070924;28;20484;-84
2023/04/21 09:30:38;;;;;;;24.65;18.27;;;15.40;93.10;;;;;;5069586;28;20031;-85
2023/04/21 09:33:04;;;;;;;24.08;18.30;;;15.50;92.90;;;;;;5072581;28;20021;-84
2023/04/21 09:35:38;;;;;;;24.63;19.05;;;15.60;92.70;;;;;;5070962;28;20069;-85
2023/04/21 09:38:10;;;;;;;24.52;18.42;;;15.60;92.30;;;;;;5055326;28;20017;-85
2023/04/21 09:40:36;;;;;;;20.60;16.02;;;15.70;92.00;;;;;;5072916;28;20019;-84
2023/04/21 09:43:02;;;;;;;22.63;17.17;;;15.80;91.90;;;;;;5071437;28;20028;-85
2023/04/21 09:45:29;;;;;;;23.48;18.90;;;15.90;91.60;;;;;;5053430;28;20032;-86
2023/04/21 09:47:57;;;;;;;24.90;18.58;;;15.90;91.40;;;;;;5071087;28;20017;-84
2023/04/21 09:50:24;;;;;;;22.08;16.92;;;16.10;91.20;;;;;;5068170;28;20059;-84
2023/04/21 09:52:52;;;;;;;24.15;17.92;;;16.20;90.90;;;;;;5050484;28;20112;-85
2023/04/21 09:55:21;;;;;;;21.50;17.50;;;16.30;90.60;;;;;;5070806;28;20020;-85
2023/04/21 09:57:48;;;;;;;22.63;17.98;;;16.40;90.30;;;;;;5070801;28;20078;-86
2023/04/21 10:00:15;;;;;;;26.13;18.60;;;16.50;90.10;;;;;;5070473;28;20122;-85
2023/04/21 10:02:46;;;;;;;23.38;17.50;;;16.50;88.70;;;;;;5053445;28;20103;-86
2023/04/21 10:05:12;;;;;;;23.42;17.55;;;16.50;88.10;;;;;;5070352;28;20016;-85
2023/04/21 10:07:38;;;;;;;22.92;18.25;;;16.50;87.90;;;;;;5069991;28;20031;-85
2023/04/21 10:10:10;;;;;;;24.83;18.35;;;16.70;87.70;;;;;;5070444;28;20028;-86
2023/04/21 10:12:36;;;;;;;21.65;16.95;;;16.70;86.90;;;;;;5072424;28;20419;-83
2023/04/21 10:15:05;;;;;;;20.75;16.80;;;16.70;86.40;;;;;;5071960;28;20045;-86
2023/04/21 10:17:35;;;;;;;21.63;16.98;;;16.70;86.20;;;;;;5073361;28;20021;-87
2023/04/21 10:20:05;;;;;;;21.83;17.13;;;16.70;85.80;;;;;;5072064;28;20020;-85
2023/04/21 10:22:33;;;;;;;22.83;17.48;;;16.70;85.30;;;;;;5069167;28;20033;-86
2023/04/21 10:25:01;;;;;;;24.10;16.92;;;16.80;85.10;;;;;;5073312;28;20032;-86
2023/04/21 10:27:39;;;;;;;23.90;17.20;;;16.80;84.70;;;;;;5071437;28;20074;-86
2023/04/21 10:30:22;;;;;;;22.40;17.73;;;16.80;84.10;;;;;;5073129;28;20029;-86
2023/04/21 10:33:00;;;;;;;22.77;17.70;;;16.80;83.80;;;;;;5071617;28;20035;-88
2023/04/21 10:36:03;;;;;;;21.67;15.50;;;16.90;84.10;;;;;;5071845;28;20016;-79
2023/04/21 10:38:42;;;;;;;20.48;16.08;;;17.10;84.00;;;;;;5069082;28;20131;-80
2023/04/21 10:41:28;;;;;;;22.33;16.98;;;17.30;83.60;;;;;;5054316;28;20596;-80
2023/04/21 10:43:58;;;;;;;23.33;16.27;;;17.30;82.90;;;;;;5070929;28;20029;-79
2023/04/21 10:46:38;;;;;;;22.17;15.73;;;17.30;82.40;;;;;;5071565;28;20056;-80
2023/04/21 10:49:24;;;;;;;18.23;14.93;;;17.30;81.90;;;;;;5071103;28;20032;-79
2023/04/21 10:51:56;;;;;;;21.55;17.27;;;17.40;81.60;;;;;;5072554;28;20033;-80
2023/04/21 10:54:26;;;;;;;20.27;14.85;;;17.40;81.00;;;;;;5074489;28;20024;-80
2023/04/21 10:56:56;;;;;;;19.00;15.02;;;17.40;80.70;;;;;;5074923;28;20028;-78
2023/04/21 10:59:23;;;;;;;22.55;17.20;;;17.40;80.50;;;;;;5074261;28;20033;-79
2023/04/21 11:01:49;;;;;;;19.50;13.80;;;17.50;80.20;;;;;;5075002;28;20033;-78
2023/04/21 11:04:19;;;;;;;18.58;15.20;;;17.60;80.20;;;;;;5074923;28;20459;-80
2023/04/21 11:07:18;;;;;;;21.10;15.80;;;17.70;80.50;;;;;;5074789;28;20036;-80
2023/04/21 11:09:45;;;;;;;19.75;16.05;;;17.70;79.00;;;;;;5066766;28;20488;-78
2023/04/21 11:12:18;;;;;;;20.63;16.30;;;17.70;78.50;;;;;;5074757;28;20025;-79
2023/04/21 11:14:48;;;;;;;21.40;17.40;;;17.60;78.10;;;;;;5073976;28;20397;-80
2023/04/21 11:17:16;;;;;;;20.02;16.10;;;17.50;77.80;;;;;;5072752;28;20040;-78
2023/04/21 11:19:45;;;;;;;20.55;15.90;;;17.40;77.60;;;;;;5074101;28;20028;-79
2023/04/21 11:22:11;;;;;;;19.92;15.75;;;17.40;77.80;;;;;;5073261;28;20024;-79
2023/04/21 11:24:36;;;;;;;20.20;15.07;;;17.50;78.00;;;;;;5071999;28;20117;-79
2023/04/21 11:27:06;;;;;;;18.67;14.90;;;17.80;78.80;;;;;;5073409;28;20105;-79
2023/04/21 11:29:32;;;;;;;18.17;14.10;;;18.30;79.70;;;;;;5071839;28;20036;-79
2023/04/21 11:31:59;;;;;;;18.30;14.38;;;18.90;79.50;;;;;;5072343;28;20016;-79
2023/04/21 11:34:25;;;;;;;16.80;12.52;;;19.30;78.30;;;;;;5070640;28;20043;-80
2023/04/21 11:36:52;;;;;;;15.70;12.32;;;19.90;78.00;;;;;;5072821;28;20468;-80
2023/04/21 11:39:21;;;;;;;14.25;10.70;;;20.10;76.90;;;;;;5071922;28;20273;-80
2023/04/21 11:41:48;;;;;;;15.30;11.07;;;20.30;75.80;;;;;;5073056;28;20028;-79
2023/04/21 11:44:30;;;;;;;15.18;11.27;;;20.40;74.80;;;;;;5067738;28;20046;-80
2023/04/21 11:46:56;;;;;;;15.00;10.63;;;20.50;73.20;;;;;;5073889;28;20016;-80
2023/04/21 11:49:26;;;;;;;15.20;11.60;;;20.60;72.90;;;;;;5073672;28;20115;-81
2023/04/21 11:51:52;;;;;;;13.77;11.23;;;20.60;71.90;;;;;;5073748;28;20017;-80
2023/04/21 11:54:20;;;;;;;14.85;11.30;;;20.60;71.00;;;;;;5072951;28;20032;-80
2023/04/21 11:56:47;;;;;;;17.77;12.48;;;20.60;70.40;;;;;;5073274;28;20040;-80
2023/04/21 11:59:15;;;;;;;15.25;11.80;;;20.60;69.70;;;;;;5056905;28;20024;-80
2023/04/21 12:01:51;;;;;;;17.85;12.48;;;20.60;69.10;;;;;;5073525;28;20435;-80
2023/04/21 12:04:22;;;;;;;15.98;12.25;;;20.60;68.40;;;;;;5073983;28;20488;-80
2023/04/21 12:06:59;;;;;;;17.42;12.05;;;20.50;68.10;;;;;;5073400;28;20031;-79
2023/04/21 12:09:25;;;;;;;15.45;11.20;;;20.60;67.90;;;;;;5073896;28;20036;-79
2023/04/21 12:11:58;;;;;;;17.60;11.80;;;20.80;67.90;;;;;;5073496;28;20025;-81
2023/04/21 12:14:27;;;;;;;16.58;12.68;;;21.00;67.30;;;;;;5074814;28;20051;-79
2023/04/21 12:16:57;;;;;;;16.35;12.15;;;21.20;67.10;;;;;;5073596;28;20028;-81
2023/04/21 12:19:34;;;;;;;16.85;13.10;;;21.30;66.20;;;;;;5072521;28;20044;-80
2023/04/21 12:22:00;;;;;;;16.15;13.02;;;21.30;65.50;;;;;;5074834;28;20032;-79
2023/04/21 12:24:26;;;;;;;15.98;12.23;;;21.10;65.00;;;;;;5074337;28;20035;-80
2023/04/21 12:26:52;;;;;;;17.70;13.20;;;21.00;64.80;;;;;;5069670;28;20074;-80
2023/04/21 12:29:18;;;;;;;16.65;13.13;;;20.90;65.00;;;;;;5072135;28;20127;-80